Time;durP1;ratioP1;P1;durP2;ratioP2;P2;SDS_P1;SDS_P2;PMS_P1;PMS_P2;Temp;Humidity;BMP_temperature;BMP_pressure;BME280_temperature;BME280_humidity;BME280_pressure;Samples;Min_cycle;Max_cycle;Signal;HPM_P1;HPM_P2
2022/01/13 00:00:08;;;;;;;65.90;23.77;;;;;;;-3.64;90.22;98257.59;5093544;28;20443;-32
2022/01/13 00:02:36;;;;;;;46.43;17.90;;;;;;;-3.62;90.36;98262.69;5093727;28;20423;-31
2022/01/13 00:05:05;;;;;;;41.20;20.33;;;;;;;-3.63;90.59;98256.66;5093733;28;20443;-31
2022/01/13 00:07:33;;;;;;;46.40;21.30;;;;;;;-3.57;90.51;98265.75;5093512;28;20454;-31
2022/01/13 00:10:01;;;;;;;41.33;17.57;;;;;;;-3.61;90.16;98269.56;5093082;28;20970;-32
2022/01/13 00:12:33;;;;;;;46.13;20.70;;;;;;;-3.65;89.95;98273.31;5093118;28;20450;-31
2022/01/13 00:15:22;;;;;;;53.63;20.50;;;;;;;-3.66;89.63;98275.06;5093440;28;20436;-31
2022/01/13 00:18:01;;;;;;;45.43;21.20;;;;;;;-3.65;89.50;98268.13;5093164;28;20781;-31
2022/01/13 00:20:47;;;;;;;87.20;30.07;;;;;;;-3.61;89.90;98277.34;5093051;28;20471;-31
2022/01/13 00:26:02;;;;;;;59.60;24.47;;;;;;;-3.62;89.77;98273.91;5093090;28;20902;-33
2022/01/13 00:28:29;;;;;;;40.50;21.23;;;;;;;-3.59;90.51;98272.84;5093254;28;20443;-32
2022/01/13 00:30:58;;;;;;;59.97;23.60;;;;;;;-3.57;90.55;98286.53;5092839;28;21046;-32
2022/01/13 00:33:27;;;;;;;48.07;26.87;;;;;;;-3.57;90.43;98286.53;5096600;28;20439;-32
2022/01/13 00:35:59;;;;;;;74.90;26.20;;;;;;;-3.55;90.40;98284.66;5096563;28;20443;-32
2022/01/13 00:38:26;;;;;;;64.07;29.17;;;;;;;-3.54;90.58;98281.13;5096942;28;20419;-33
2022/01/13 00:40:54;;;;;;;89.33;31.90;;;;;;;-3.53;90.36;98280.19;5096519;28;20454;-32
2022/01/13 00:43:21;;;;;;;85.70;31.73;;;;;;;-3.53;90.29;98294.03;5096691;28;20453;-32
2022/01/13 00:45:49;;;;;;;78.73;32.73;;;;;;;-3.52;90.57;98305.22;5096577;28;20439;-32
2022/01/13 00:48:17;;;;;;;79.40;30.33;;;;;;;-3.51;90.79;98301.69;5096427;28;20479;-33
2022/01/13 00:50:46;;;;;;;64.70;31.27;;;;;;;-3.47;90.91;98312.69;5096229;28;20493;-32
2022/01/13 00:53:13;;;;;;;67.37;27.10;;;;;;;-3.44;91.42;98302.06;5096615;28;20852;-32
2022/01/13 00:55:49;;;;;;;46.97;21.67;;;;;;;-3.41;91.24;98292.28;5096575;28;20803;-32
2022/01/13 00:58:17;;;;;;;49.80;22.67;;;;;;;-3.41;91.42;98307.06;5096077;28;20479;-32
2022/01/13 01:00:45;;;;;;;56.93;24.40;;;;;;;-3.43;90.97;98306.34;5096984;28;20536;-33
2022/01/13 01:03:12;;;;;;;62.47;25.40;;;;;;;-3.51;90.65;98307.72;5096145;28;20445;-32
2022/01/13 01:05:39;;;;;;;41.83;15.60;;;;;;;-3.56;90.13;98306.38;5095997;28;20478;-33
2022/01/13 01:08:10;;;;;;;28.20;14.67;;;;;;;-3.55;90.12;98305.44;5096048;28;20453;-32
2022/01/13 01:10:37;;;;;;;41.27;17.70;;;;;;;-3.53;89.95;98304.41;5096163;28;20528;-32
2022/01/13 01:13:11;;;;;;;31.67;14.20;;;;;;;-3.73;90.19;98277.25;5096073;28;20446;-32
2022/01/13 01:15:43;;;;;;;30.83;15.20;;;;;;;-3.83;90.09;98268.50;5095940;28;20480;-31
2022/01/13 01:18:23;;;;;;;12.20;6.63;;;;;;;-3.55;89.77;98308.03;5095820;28;21016;-31
2022/01/13 01:21:04;;;;;;;14.63;6.47;;;;;;;-3.53;89.67;98294.03;5095754;28;20438;-31
2022/01/13 01:23:37;;;;;;;23.10;9.73;;;;;;;-3.48;89.31;98291.09;5095775;28;20918;-31
2022/01/13 01:26:09;;;;;;;15.23;7.23;;;;;;;-3.45;89.32;98288.25;5095866;28;20432;-32
2022/01/13 01:28:44;;;;;;;10.33;5.93;;;;;;;-3.45;88.84;98293.44;5095611;28;20467;-31
2022/01/13 01:31:13;;;;;;;16.97;5.60;;;;;;;-3.47;89.24;98287.53;5095591;28;20482;-31
2022/01/13 01:33:47;;;;;;;10.63;7.20;;;;;;;-3.45;89.58;98290.84;5095929;28;20477;-31
2022/01/13 01:36:15;;;;;;;24.30;9.80;;;;;;;-3.42;89.95;98295.00;5095532;28;20496;-31
2022/01/13 01:38:47;;;;;;;17.37;6.33;;;;;;;-3.53;90.11;98272.41;5095369;28;20504;-31
2022/01/13 01:41:16;;;;;;;13.73;7.90;;;;;;;-3.45;90.42;98296.03;5095715;28;20427;-31
2022/01/13 01:43:43;;;;;;;8.20;5.33;;;;;;;-3.36;90.99;98295.38;5094260;28;20451;-32
2022/01/13 01:46:10;;;;;;;18.17;7.00;;;;;;;-3.46;91.52;98272.78;5095648;28;20443;-32
2022/01/13 01:48:37;;;;;;;21.70;9.20;;;;;;;-3.28;91.89;98296.59;5095165;28;20936;-31
2022/01/13 01:51:05;;;;;;;17.23;7.27;;;;;;;-3.24;91.94;98296.25;5095097;28;20490;-32
2022/01/13 01:53:32;;;;;;;17.70;8.93;;;;;;;-3.21;91.98;98295.19;5095062;28;21138;-32
2022/01/13 01:56:01;;;;;;;13.43;6.23;;;;;;;-3.21;92.24;98297.78;5094904;28;20447;-32
2022/01/13 01:58:29;;;;;;;17.70;7.20;;;;;;;-3.16;92.55;98306.06;5095159;28;20906;-31
2022/01/13 02:00:56;;;;;;;12.47;8.20;;;;;;;-3.14;92.31;98304.19;5094905;28;20451;-31
2022/01/13 02:03:26;;;;;;;13.63;5.43;;;;;;;-3.20;92.01;98281.28;5094888;28;20447;-31
2022/01/13 02:05:53;;;;;;;20.93;7.87;;;;;;;-3.20;91.87;98295.09;5095205;28;20443;-31
2022/01/13 02:08:21;;;;;;;20.93;9.20;;;;;;;-3.24;92.44;98285.88;5094943;28;20439;-31
2022/01/13 02:10:49;;;;;;;17.87;7.67;;;;;;;-3.23;92.27;98292.69;5094975;28;20884;-30
2022/01/13 02:13:22;;;;;;;11.80;6.70;;;;;;;-3.20;92.84;98294.28;5095084;28;20926;-31
2022/01/13 02:16:01;;;;;;;21.63;7.27;;;;;;;-3.22;92.36;98290.97;5094999;28;20845;-31
2022/01/13 02:18:31;;;;;;;35.07;12.00;;;;;;;-3.23;92.73;98290.09;5094742;28;20989;-31
2022/01/13 02:21:01;;;;;;;18.67;8.77;;;;;;;-3.21;93.00;98275.22;5094888;28;20471;-31
2022/01/13 02:23:31;;;;;;;15.77;8.97;;;;;;;-3.21;92.88;98283.03;5095418;28;20515;-32
2022/01/13 02:25:59;;;;;;;23.80;10.47;;;;;;;-3.20;93.21;98283.88;5094905;28;20493;-31
2022/01/13 02:28:27;;;;;;;30.50;13.57;;;;;;;-3.20;93.42;98300.28;5094329;28;20439;-31
2022/01/13 02:30:54;;;;;;;20.90;9.60;;;;;;;-3.16;93.47;98293.06;5094648;28;20494;-31
2022/01/13 02:33:21;;;;;;;21.47;10.93;;;;;;;-3.13;93.71;98293.69;5094608;28;20488;-31
2022/01/13 02:35:48;;;;;;;12.77;6.83;;;;;;;-3.12;94.12;98300.56;5094630;28;20476;-32
2022/01/13 02:38:17;;;;;;;20.27;7.93;;;;;;;-3.10;94.39;98288.28;5094566;28;20465;-33
2022/01/13 02:40:44;;;;;;;21.37;7.80;;;;;;;-3.06;94.62;98296.66;5094455;28;20450;-31
2022/01/13 02:43:12;;;;;;;21.87;9.50;;;;;;;-3.05;94.85;98292.28;5094234;28;20443;-31
2022/01/13 02:45:51;;;;;;;25.43;9.20;;;;;;;-3.01;95.27;98289.38;5094368;28;20785;-32
2022/01/13 02:48:30;;;;;;;42.70;17.97;;;;;;;-2.96;95.38;98281.22;5094156;28;20431;-31
2022/01/13 02:50:58;;;;;;;21.80;12.47;;;;;;;-2.94;95.63;98284.53;5094029;28;20482;-33
2022/01/13 02:53:27;;;;;;;35.83;18.93;;;;;;;-2.93;95.99;98287.00;5094053;28;20922;-32
2022/01/13 02:56:00;;;;;;;19.73;8.50;;;;;;;-2.95;96.20;98288.88;5093739;28;20451;-32
2022/01/13 02:58:27;;;;;;;21.13;7.40;;;;;;;-3.03;95.89;98275.66;5053752;28;20444;-32
2022/01/13 03:00:55;;;;;;;14.37;6.93;;;;;;;-3.09;95.82;98276.13;5053661;28;20441;-32
2022/01/13 03:03:22;;;;;;;17.47;7.43;;;;;;;-3.06;96.17;98281.06;5054005;28;20444;-32
2022/01/13 03:05:49;;;;;;;21.53;8.50;;;;;;;-3.05;96.59;98293.13;5053936;28;20448;-32
2022/01/13 03:08:16;;;;;;;27.67;10.83;;;;;;;-3.03;96.72;98286.06;5053854;28;20811;-32
2022/01/13 03:10:45;;;;;;;31.93;9.93;;;;;;;-3.09;96.48;98281.31;5053532;28;20682;-32
2022/01/13 03:13:12;;;;;;;36.27;14.00;;;;;;;-3.08;97.24;98293.34;5053518;28;20444;-32
2022/01/13 03:15:39;;;;;;;46.93;12.50;;;;;;;-3.06;98.17;98286.25;5053688;28;20523;-32
2022/01/13 03:18:07;;;;;;;30.77;12.47;;;;;;;-3.09;97.81;98300.31;5053469;28;20452;-32
2022/01/13 03:20:34;;;;;;;31.13;10.90;;;;;;;-3.11;98.32;98297.00;5053495;28;20451;-32
2022/01/13 03:23:04;;;;;;;22.47;12.90;;;;;;;-3.24;98.68;98288.47;5053510;28;20444;-32
2022/01/13 03:25:31;;;;;;;47.90;16.60;;;;;;;-3.15;99.17;98297.34;5053713;28;20449;-32
2022/01/13 03:28:07;;;;;;;34.10;14.67;;;;;;;-3.15;99.19;98302.53;5053681;28;20459;-32
2022/01/13 03:30:34;;;;;;;37.13;11.93;;;;;;;-3.17;99.22;98304.44;5053326;28;20498;-32
2022/01/13 03:33:02;;;;;;;28.00;11.20;;;;;;;-3.13;99.66;98313.66;5053288;28;20445;-32
2022/01/13 03:35:29;;;;;;;25.70;12.10;;;;;;;-3.12;99.84;98312.69;5053190;28;20502;-32
2022/01/13 03:37:58;;;;;;;36.13;16.50;;;;;;;-3.13;99.36;98316.25;5053199;28;20445;-33
2022/01/13 03:40:25;;;;;;;52.33;11.90;;;;;;;-3.30;99.71;98294.91;5053199;28;20469;-33
2022/01/13 03:42:53;;;;;;;21.33;11.57;;;;;;;-3.21;99.61;98318.59;5053211;28;20924;-32
2022/01/13 03:45:22;;;;;;;30.00;14.00;;;;;;;-3.25;100.00;98317.13;5053109;28;20452;-33
2022/01/13 03:47:50;;;;;;;75.50;26.67;;;;;;;-3.22;100.00;98311.75;5053154;28;20951;-32
2022/01/13 03:50:17;;;;;;;50.40;17.03;;;;;;;-3.32;99.88;98321.97;5053248;28;20834;-33
2022/01/13 03:53:17;;;;;;;41.17;17.87;;;;;;;-3.31;100.00;98316.66;5053075;28;20448;-32
2022/01/13 03:56:26;;;;;;;70.43;21.43;;;;;;;-3.25;100.00;98317.13;5053061;28;20796;-32
2022/01/13 03:59:35;;;;;;;69.33;26.40;;;;;;;-3.25;100.00;98327.53;5053073;28;20504;-33
2022/01/13 04:02:06;;;;;;;58.83;23.13;;;;;;;-3.26;100.00;98331.09;5053419;28;20433;-32
2022/01/13 04:04:36;;;;;;;44.17;14.00;;;;;;;-3.25;99.45;98328.34;5053476;28;20425;-32
2022/01/13 04:07:12;;;;;;;44.27;16.60;;;;;;;-3.31;99.48;98331.44;5054781;28;20441;-33
2022/01/13 04:10:12;;;;;;;48.27;17.33;;;;;;;-3.30;100.00;98333.06;5056935;28;20436;-33
2022/01/13 04:12:39;;;;;;;67.17;20.53;;;;;;;-3.24;100.00;98334.41;5040632;28;20829;-33
2022/01/13 04:15:12;;;;;;;38.47;14.47;;;;;;;-3.24;99.55;98339.59;5057086;28;20448;-32
2022/01/13 04:17:40;;;;;;;46.80;14.53;;;;;;;-3.27;98.24;98334.59;5057081;28;20929;-33
2022/01/13 04:20:10;;;;;;;42.07;15.70;;;;;;;-3.37;98.68;98330.09;5056972;28;20440;-32
2022/01/13 04:22:37;;;;;;;32.70;14.63;;;;;;;-3.35;98.83;98338.59;5056931;28;20448;-33
2022/01/13 04:25:06;;;;;;;40.93;17.47;;;;;;;-3.31;98.42;98340.03;5056866;28;20441;-33
2022/01/13 04:27:37;;;;;;;34.57;16.83;;;;;;;-3.30;98.47;98344.28;5056581;28;20808;-32
2022/01/13 04:32:53;;;;;;;37.33;18.40;;;;;;;-3.20;97.47;98346.22;5056535;28;20487;-32
2022/01/13 04:35:20;;;;;;;43.70;15.33;;;;;;;-3.27;97.24;98339.81;5056972;28;20812;-31
2022/01/13 04:37:48;;;;;;;38.27;16.77;;;;;;;-3.31;96.59;98329.66;5056401;28;20833;-32
2022/01/13 04:40:15;;;;;;;42.33;16.90;;;;;;;-3.32;96.52;98338.38;5056596;28;20502;-31
2022/01/13 04:42:45;;;;;;;32.43;15.30;;;;;;;-3.28;96.24;98328.59;5056547;28;20522;-32
2022/01/13 04:45:12;;;;;;;41.60;14.63;;;;;;;-3.30;96.09;98336.50;5056454;28;20448;-32
2022/01/13 04:47:39;;;;;;;40.73;16.70;;;;;;;-3.33;93.63;98331.53;5056073;28;20444;-31
2022/01/13 04:50:09;;;;;;;34.20;13.83;;;;;;;-3.37;93.38;98339.66;5056369;28;20445;-31
2022/01/13 04:52:36;;;;;;;36.90;16.93;;;;;;;-3.38;93.30;98332.78;5056791;28;20492;-31
2022/01/13 04:55:09;;;;;;;35.53;15.57;;;;;;;-3.46;93.08;98335.97;5056030;28;20451;-31
2022/01/13 04:57:36;;;;;;;40.27;17.60;;;;;;;-3.48;93.17;98339.56;5084315;28;20497;-31
2022/01/13 05:00:06;;;;;;;34.37;18.43;;;;;;;-3.50;93.25;98352.69;5096602;28;20439;-31
2022/01/13 05:02:33;;;;;;;60.47;22.93;;;;;;;-3.53;93.78;98353.75;5096540;28;20439;-31
2022/01/13 05:05:00;;;;;;;31.03;14.37;;;;;;;-3.54;92.44;98361.63;5096368;28;20774;-30
2022/01/13 05:07:29;;;;;;;31.30;12.67;;;;;;;-3.54;92.81;98361.63;5096420;28;20910;-31
2022/01/13 05:09:56;;;;;;;48.67;16.13;;;;;;;-3.53;92.20;98347.69;5096310;28;20512;-32
2022/01/13 05:12:29;;;;;;;38.67;15.47;;;;;;;-3.56;92.32;98350.53;5095921;28;20497;-32
2022/01/13 05:15:02;;;;;;;27.90;15.17;;;;;;;-3.65;91.93;98348.59;5096141;28;20481;-32
2022/01/13 05:18:01;;;;;;;38.10;16.70;;;;;;;-3.80;91.75;98329.75;5095858;28;20435;-32
2022/01/13 05:20:38;;;;;;;41.43;18.27;;;;;;;-3.75;90.63;98362.19;5095782;28;20930;-31
2022/01/13 05:23:08;;;;;;;43.77;18.90;;;;;;;-3.70;90.57;98369.66;5095759;28;20484;-32
2022/01/13 05:25:36;;;;;;;34.70;16.10;;;;;;;-3.76;89.28;98365.75;5095805;28;20435;-32
2022/01/13 05:28:03;;;;;;;37.70;14.87;;;;;;;-3.82;88.85;98366.19;5095971;28;20442;-31
2022/01/13 05:30:31;;;;;;;31.87;12.47;;;;;;;-3.88;89.16;98371.78;5095579;28;20439;-32
2022/01/13 05:32:58;;;;;;;33.67;15.50;;;;;;;-3.95;88.27;98370.56;5096640;28;20902;-32
2022/01/13 05:35:26;;;;;;;55.90;22.33;;;;;;;-3.98;89.31;98371.63;5095973;28;20639;-31
2022/01/13 05:37:54;;;;;;;44.27;17.13;;;;;;;-3.94;90.08;98380.84;5095734;28;20497;-33
2022/01/13 05:40:23;;;;;;;48.80;21.63;;;;;;;-3.91;90.61;98383.22;5095614;28;20513;-32
2022/01/13 05:42:51;;;;;;;51.47;23.00;;;;;;;-3.85;90.95;98381.97;5095588;28;20508;-32
2022/01/13 05:45:20;;;;;;;36.83;16.07;;;;;;;-3.93;91.01;98353.13;5095308;28;20434;-34
2022/01/13 05:47:49;;;;;;;146.00;62.40;;;;;;;-3.79;90.57;98376.34;5095154;28;20475;-32
2022/01/13 05:50:19;;;;;;;165.40;85.43;;;;;;;-3.73;90.73;98381.09;5095204;28;20774;-32
2022/01/13 05:52:46;;;;;;;79.00;45.50;;;;;;;-3.82;90.54;98355.78;5094932;28;21013;-32
2022/01/13 05:55:15;;;;;;;64.63;22.23;;;;;;;-3.69;90.07;98370.50;5095197;28;20449;-33
2022/01/13 05:57:44;;;;;;;43.77;21.67;;;;;;;-3.66;90.69;98386.69;5094860;28;20856;-32
2022/01/13 06:00:13;;;;;;;75.97;25.77;;;;;;;-3.60;91.34;98377.66;5095004;28;20446;-31
2022/01/13 06:02:42;;;;;;;77.43;27.90;;;;;;;-3.54;91.62;98377.22;5094889;28;20454;-32
2022/01/13 06:05:10;;;;;;;101.40;31.70;;;;;;;-3.50;91.32;98392.47;5095015;28;20976;-31
2022/01/13 06:07:38;;;;;;;65.60;28.23;;;;;;;-3.61;91.14;98368.22;5094872;28;20443;-31
2022/01/13 06:10:08;;;;;;;47.97;24.10;;;;;;;-3.43;91.03;98387.66;5094783;28;20453;-31
2022/01/13 06:12:37;;;;;;;38.07;20.40;;;;;;;-3.40;91.21;98387.47;5095105;28;20478;-33
2022/01/13 06:15:09;;;;;;;72.23;28.10;;;;;;;-3.37;91.04;98397.63;5094665;28;20447;-32
2022/01/13 06:17:37;;;;;;;59.70;27.37;;;;;;;-3.34;91.15;98406.97;5094878;28;20807;-30
2022/01/13 06:20:06;;;;;;;48.07;25.40;;;;;;;-3.31;90.37;98410.19;5094485;28;20780;-31
2022/01/13 06:22:33;;;;;;;56.23;25.00;;;;;;;-3.26;90.27;98414.22;5094518;28;20812;-31
2022/01/13 06:25:02;;;;;;;24.40;12.03;;;;;;;-3.28;88.45;98410.91;5094459;28;20439;-31
2022/01/13 06:27:29;;;;;;;77.83;36.00;;;;;;;-3.34;88.25;98401.75;5094730;28;20810;-31
2022/01/13 06:29:56;;;;;;;159.37;60.80;;;;;;;-3.28;88.78;98416.91;5093802;28;20435;-31
2022/01/13 06:32:26;;;;;;;97.00;45.53;;;;;;;-3.24;88.70;98412.34;5094240;28;20493;-32
2022/01/13 06:34:54;;;;;;;59.47;30.10;;;;;;;-3.20;88.74;98414.59;5094779;28;20443;-31
2022/01/13 06:37:21;;;;;;;63.27;30.27;;;;;;;-3.06;89.14;98416.19;5094916;28;20493;-31
2022/01/13 06:39:49;;;;;;;81.03;34.20;;;;;;;-2.89;88.63;98427.97;5094203;28;20450;-31
2022/01/13 06:42:17;;;;;;;81.90;32.17;;;;;;;-2.80;88.17;98421.28;5094120;28;20443;-31
2022/01/13 06:45:13;;;;;;;71.20;27.70;;;;;;;-2.77;87.21;98439.28;5094184;28;20815;-32
2022/01/13 06:47:43;;;;;;;69.53;23.80;;;;;;;-2.68;86.90;98446.38;5094072;28;20432;-32
2022/01/13 06:50:11;;;;;;;63.67;26.47;;;;;;;-2.66;87.28;98436.72;5094219;28;20442;-31
2022/01/13 06:52:39;;;;;;;76.33;28.13;;;;;;;-2.61;86.42;98451.97;5093829;28;20501;-31
2022/01/13 06:55:07;;;;;;;51.50;19.70;;;;;;;-2.67;85.42;98458.44;5094049;28;20447;-31
2022/01/13 06:57:34;;;;;;;40.57;23.00;;;;;;;-2.64;85.94;98463.44;5094391;28;20818;-32
2022/01/13 07:00:02;;;;;;;49.67;19.37;;;;;;;-2.59;86.23;98476.09;5093877;28;20449;-31
2022/01/13 07:02:30;;;;;;;36.17;17.00;;;;;;;-2.56;85.46;98455.91;5094342;28;20482;-31
2022/01/13 07:04:59;;;;;;;33.20;15.47;;;;;;;-2.63;83.24;98465.06;5094095;28;20526;-32
2022/01/13 07:07:26;;;;;;;31.83;15.77;;;;;;;-2.68;83.65;98456.78;5093797;28;20439;-30
2022/01/13 07:09:53;;;;;;;50.47;18.47;;;;;;;-2.79;83.67;98464.56;5093757;28;20450;-31
2022/01/13 07:12:21;;;;;;;51.00;21.83;;;;;;;-2.76;84.47;98469.50;5093824;28;20878;-31
2022/01/13 07:14:48;;;;;;;30.13;11.80;;;;;;;-2.73;83.38;98479.69;5093496;28;20451;-32
2022/01/13 07:17:16;;;;;;;56.33;20.70;;;;;;;-2.85;83.53;98475.38;5092095;28;20435;-32
2022/01/13 07:19:45;;;;;;;62.10;26.63;;;;;;;-2.84;84.17;98474.44;5091839;28;20446;-32
2022/01/13 07:22:17;;;;;;;50.83;21.13;;;;;;;-2.88;84.13;98477.25;5093322;28;20447;-32
2022/01/13 07:24:44;;;;;;;51.83;23.50;;;;;;;-2.91;84.67;98480.06;5093638;28;20484;-31
2022/01/13 07:27:11;;;;;;;23.40;12.00;;;;;;;-3.22;83.98;98472.81;5093853;28;20793;-32
2022/01/13 07:29:39;;;;;;;49.50;23.20;;;;;;;-3.02;84.30;98485.22;5093730;28;20447;-32
2022/01/13 07:32:07;;;;;;;49.70;22.90;;;;;;;-2.91;85.00;98477.47;5093312;28;20483;-32
2022/01/13 07:34:34;;;;;;;34.53;16.40;;;;;;;-3.02;81.62;98453.19;5093867;28;20446;-32
2022/01/13 07:37:01;;;;;;;38.57;14.57;;;;;;;-2.86;83.14;98486.72;5093531;28;20941;-32
2022/01/13 07:39:30;;;;;;;71.93;21.50;;;;;;;-2.89;83.13;98499.00;5093775;28;20439;-32
2022/01/13 07:41:57;;;;;;;61.67;17.77;;;;;;;-2.84;82.76;98498.66;5095093;28;20450;-32
2022/01/13 07:44:25;;;;;;;45.60;17.07;;;;;;;-2.81;82.88;98502.81;5097424;28;20496;-33
2022/01/13 07:46:52;;;;;;;35.67;16.07;;;;;;;-2.84;82.39;98508.22;5097844;28;20465;-32
2022/01/13 07:49:19;;;;;;;30.17;15.47;;;;;;;-2.80;82.02;98513.09;5097440;28;21036;-33
2022/01/13 07:51:46;;;;;;;51.33;19.30;;;;;;;-2.81;82.05;98508.03;5097463;28;20442;-32
2022/01/13 07:54:14;;;;;;;37.40;15.63;;;;;;;-2.92;82.50;98496.63;5097778;28;20453;-33
2022/01/13 07:56:42;;;;;;;32.33;14.73;;;;;;;-2.68;82.73;98514.00;5097248;28;20870;-33
2022/01/13 07:59:09;;;;;;;21.87;10.37;;;;;;;-2.61;81.56;98511.78;5097756;28;20454;-33
2022/01/13 08:01:37;;;;;;;37.73;13.90;;;;;;;-2.63;81.24;98511.06;5097652;28;20953;-32
2022/01/13 08:04:04;;;;;;;20.33;9.93;;;;;;;-2.62;81.14;98507.53;5098155;28;20445;-32
2022/01/13 08:06:31;;;;;;;41.97;17.20;;;;;;;-2.55;81.17;98509.56;5097266;28;20443;-31
2022/01/13 08:08:59;;;;;;;29.57;12.13;;;;;;;-2.51;81.48;98507.56;5097272;28;20785;-32
2022/01/13 08:11:26;;;;;;;36.50;14.73;;;;;;;-2.41;81.52;98518.97;5097212;28;20821;-32
2022/01/13 08:13:55;;;;;;;39.17;15.97;;;;;;;-2.33;81.37;98521.00;5097029;28;20491;-32
2022/01/13 08:16:24;;;;;;;33.17;14.77;;;;;;;-2.24;81.15;98524.69;5097324;28;21003;-32
2022/01/13 08:21:36;;;;;;;55.60;15.30;;;;;;;-2.01;80.02;98517.78;5097089;28;20540;-32
2022/01/13 08:24:03;;;;;;;28.57;12.97;;;;;;;-1.99;79.61;98511.53;5097161;28;20447;-32
2022/01/13 08:26:30;;;;;;;55.67;21.67;;;;;;;-1.90;79.54;98516.03;5097171;28;20449;-33
2022/01/13 08:28:59;;;;;;;41.17;17.73;;;;;;;-1.83;78.73;98519.00;5096998;28;20488;-32
2022/01/13 08:31:26;;;;;;;32.93;14.10;;;;;;;-1.83;77.66;98516.38;5096718;28;20438;-34
2022/01/13 08:33:53;;;;;;;41.60;19.90;;;;;;;-1.55;77.64;98519.50;5096788;28;20483;-33
2022/01/13 08:36:20;;;;;;;48.50;18.30;;;;;;;-1.41;76.26;98500.22;5096522;28;20453;-32
2022/01/13 08:38:49;;;;;;;38.33;15.13;;;;;;;-1.22;75.57;98510.88;5096969;28;20844;-33
2022/01/13 08:41:17;;;;;;;40.47;16.90;;;;;;;-0.83;74.40;98522.53;5096501;28;20453;-32
2022/01/13 08:43:45;;;;;;;81.67;26.93;;;;;;;-0.40;73.83;98520.06;5096472;28;20447;-32
2022/01/13 08:46:13;;;;;;;88.07;24.83;;;;;;;0.04;72.39;98515.56;5096702;28;20449;-32
2022/01/13 08:48:40;;;;;;;82.13;30.20;;;;;;;0.34;70.55;98520.00;5096635;28;20435;-33
2022/01/13 08:51:08;;;;;;;33.40;16.30;;;;;;;0.38;69.72;98514.38;5096420;28;20925;-33
2022/01/13 08:53:37;;;;;;;74.07;25.87;;;;;;;0.27;68.36;98506.63;5095786;28;20491;-32
2022/01/13 08:56:05;;;;;;;22.70;12.60;;;;;;;0.29;69.13;98504.72;5096219;28;20488;-30
2022/01/13 08:58:32;;;;;;;43.20;16.90;;;;;;;0.55;69.39;98499.06;5096144;28;20427;-32
2022/01/13 09:00:59;;;;;;;31.77;14.10;;;;;;;0.71;68.78;98506.41;5096176;28;20489;-31
2022/01/13 09:03:28;;;;;;;24.63;11.47;;;;;;;0.72;67.42;98505.47;5096064;28;20926;-31
2022/01/13 09:05:55;;;;;;;33.93;16.87;;;;;;;0.87;68.15;98508.53;5096068;28;20439;-31
2022/01/13 09:08:22;;;;;;;18.73;11.03;;;;;;;0.96;66.66;98515.59;5095977;28;20447;-31
2022/01/13 09:10:49;;;;;;;49.27;20.93;;;;;;;0.98;66.42;98511.06;5096101;28;20451;-31
2022/01/13 09:13:17;;;;;;;27.47;16.47;;;;;;;0.92;66.43;98501.13;5096197;28;20517;-32
2022/01/13 09:15:50;;;;;;;43.40;21.17;;;;;;;1.05;65.95;98491.22;5095851;28;20790;-33
2022/01/13 09:18:29;;;;;;;31.30;17.93;;;;;;;1.18;66.26;98481.38;5096180;28;20427;-30
2022/01/13 09:20:59;;;;;;;42.20;19.03;;;;;;;1.42;66.72;98469.69;5096095;28;20436;-31
2022/01/13 09:23:26;;;;;;;28.83;14.90;;;;;;;1.20;65.38;98474.19;5096106;28;20443;-30
2022/01/13 09:25:54;;;;;;;42.43;21.07;;;;;;;0.78;66.05;98479.63;5096058;28;20439;-30
2022/01/13 09:28:22;;;;;;;51.67;20.70;;;;;;;0.46;67.14;98474.53;5095514;28;20443;-30
2022/01/13 09:30:49;;;;;;;115.13;34.33;;;;;;;0.23;68.25;98479.09;5095856;28;20467;-30
2022/01/13 09:33:16;;;;;;;40.93;21.37;;;;;;;0.12;68.20;98471.34;5095754;28;20608;-30
2022/01/13 09:35:43;;;;;;;51.37;26.83;;;;;;;-0.02;69.29;98469.91;5095821;28;20439;-30
2022/01/13 09:38:12;;;;;;;38.60;17.37;;;;;;;-0.19;69.61;98447.81;5095705;28;20439;-31
2022/01/13 09:40:39;;;;;;;30.00;13.20;;;;;;;-0.32;69.63;98436.72;5095369;28;20445;-30
2022/01/13 09:43:07;;;;;;;34.80;13.37;;;;;;;-0.60;69.10;98449.44;5095312;28;20445;-31
2022/01/13 09:45:35;;;;;;;35.33;14.07;;;;;;;-0.34;69.70;98439.47;5095516;28;20779;-30
2022/01/13 09:48:02;;;;;;;39.00;21.37;;;;;;;-0.26;70.50;98446.66;5095338;28;20446;-31
2022/01/13 09:50:30;;;;;;;34.23;20.73;;;;;;;-0.34;68.86;98438.66;5095449;28;20446;-30
2022/01/13 09:52:57;;;;;;;31.00;15.67;;;;;;;-0.55;68.88;98430.78;5094994;28;20536;-31
2022/01/13 09:55:26;;;;;;;28.07;10.13;;;;;;;-0.70;70.54;98412.00;5095312;28;20447;-30
2022/01/13 09:57:56;;;;;;;27.67;14.47;;;;;;;-0.87;71.67;98411.59;5094856;28;21017;-31
2022/01/13 10:00:26;;;;;;;21.10;10.10;;;;;;;-0.88;72.47;98409.94;5094968;28;20455;-31
2022/01/13 10:02:54;;;;;;;22.20;8.10;;;;;;;-0.90;72.97;98400.59;5094959;28;20792;-30
2022/01/13 10:05:23;;;;;;;19.70;10.23;;;;;;;-0.85;73.42;98388.81;5094231;28;20465;-31
2022/01/13 10:07:52;;;;;;;30.83;12.10;;;;;;;-0.67;73.80;98381.28;5094887;28;20907;-30
2022/01/13 10:10:22;;;;;;;19.60;9.20;;;;;;;-0.57;72.68;98370.09;5094911;28;20447;-32
2022/01/13 10:13:04;;;;;;;22.20;10.23;;;;;;;-0.54;72.78;98346.34;5094936;28;20467;-30
2022/01/13 10:18:42;;;;;;;22.87;8.10;;;;;;;-0.18;71.20;98355.47;5094755;28;20772;-30
2022/01/13 10:21:11;;;;;;;17.20;9.43;;;;;;;-0.13;71.34;98352.47;5094512;28;20447;-32
2022/01/13 10:23:59;;;;;;;17.90;9.97;;;;;;;-0.13;70.48;98321.97;5094869;28;20926;-31
2022/01/13 10:26:26;;;;;;;21.53;8.93;;;;;;;0.18;69.67;98335.81;5094571;28;20944;-31
2022/01/13 10:28:55;;;;;;;15.93;9.57;;;;;;;0.20;69.25;98322.63;5094441;28;20442;-31
2022/01/13 10:31:22;;;;;;;26.67;9.87;;;;;;;0.53;68.85;98316.22;5094447;28;20438;-30
2022/01/13 10:33:50;;;;;;;13.07;8.83;;;;;;;0.54;67.59;98317.06;5094316;28;20839;-32
2022/01/13 10:36:17;;;;;;;28.90;13.93;;;;;;;0.36;66.54;98307.25;5094601;28;20439;-32
2022/01/13 10:38:55;;;;;;;39.50;18.80;;;;;;;0.20;65.56;98305.16;5094621;28;20844;-32
2022/01/13 10:41:31;;;;;;;31.23;12.93;;;;;;;0.38;66.29;98307.13;5094212;28;20438;-32
2022/01/13 10:44:22;;;;;;;22.13;10.57;;;;;;;0.28;67.74;98304.50;5094294;28;20433;-33
2022/01/13 10:47:03;;;;;;;23.33;8.97;;;;;;;0.19;66.08;98302.69;5090013;28;20508;-32
2022/01/13 10:49:35;;;;;;;21.63;12.00;;;;;;;0.14;66.33;98273.53;5094181;28;20921;-32
2022/01/13 10:52:24;;;;;;;16.50;8.10;;;;;;;0.51;66.10;98299.03;5094064;28;20443;-32
2022/01/13 10:54:53;;;;;;;14.27;6.83;;;;;;;0.53;65.42;98304.94;5093948;28;20478;-32
2022/01/13 10:57:23;;;;;;;11.63;6.17;;;;;;;0.49;65.54;98303.56;5093947;28;21008;-32
2022/01/13 10:59:52;;;;;;;15.20;8.23;;;;;;;0.34;65.32;98324.84;5093899;28;20435;-32
2022/01/13 11:02:19;;;;;;;13.40;9.20;;;;;;;0.14;66.88;98312.72;5094276;28;20447;-32
2022/01/13 11:04:47;;;;;;;15.90;8.00;;;;;;;0.24;66.56;98326.63;5094046;28;20496;-33
2022/01/13 11:07:17;;;;;;;16.80;8.07;;;;;;;0.23;66.21;98319.75;5094135;28;20447;-32
2022/01/13 11:09:53;;;;;;;18.17;7.83;;;;;;;0.05;66.63;98314.34;5094057;28;20443;-32
2022/01/13 11:12:30;;;;;;;16.70;8.97;;;;;;;-0.01;68.58;98313.06;5094079;28;20518;-32
2022/01/13 11:15:03;;;;;;;18.23;7.50;;;;;;;-0.19;66.12;98324.25;5093860;28;20482;-30
2022/01/13 11:17:30;;;;;;;26.93;9.30;;;;;;;-0.64;67.64;98322.81;5094010;28;20430;-30
2022/01/13 11:19:58;;;;;;;19.10;7.80;;;;;;;-0.72;66.79;98317.41;5093562;28;20439;-31
2022/01/13 11:22:25;;;;;;;36.57;18.40;;;;;;;-0.77;68.18;98316.97;5093620;28;20435;-31
2022/01/13 11:24:52;;;;;;;20.60;11.53;;;;;;;-0.67;69.59;98317.81;5093537;28;20446;-30
2022/01/13 11:27:21;;;;;;;34.57;16.70;;;;;;;-0.62;70.38;98321.72;5093896;28;20439;-30
2022/01/13 11:29:50;;;;;;;23.97;11.40;;;;;;;-0.45;68.67;98333.34;5093706;28;20537;-30
2022/01/13 11:32:18;;;;;;;15.73;7.37;;;;;;;-0.54;66.85;98326.28;5093856;28;20451;-31
2022/01/13 11:34:47;;;;;;;39.00;15.63;;;;;;;-0.55;68.80;98335.06;5094273;28;20494;-30
2022/01/13 11:37:15;;;;;;;52.43;22.27;;;;;;;-0.42;70.16;98340.09;5093951;28;20469;-30
2022/01/13 11:39:45;;;;;;;32.17;15.57;;;;;;;-0.27;70.58;98340.59;5094606;28;20449;-31
2022/01/13 11:42:14;;;;;;;18.77;9.90;;;;;;;-0.28;69.83;98355.44;5093776;28;20477;-30